Station Historical Data
 
Daily Summary for October 21, 2014 Units:  English    Metric   Both
« Previous Day
Next Day »
Daily Weekly Monthly Yearly Custom
  Current: High: Low: Average:
Temperature: 70.7 °F 70.7 °F 47.6 °F 54.8 °F
Dew Point: 51.2 °F 57.5 °F 46.2 °F 49.7 °F
Humidity: 50% 96% 50% 85%
Wind Speed: 1.0mph 7.0mph 0.0mph 0.5mph
Wind Gust: 6.0mph 9.0mph - -
WindSSW - - SSE
Pressure: 30.03 in 30.07 in 30.00 in -
Precipitation: 0.00 in      
Historical Graphs
 
 
Tabular Data for October 21, 2014
Time Temperature Dew Point Pressure Wind Wind Speed Wind Gust Humidity Rainfall Rate (Hourly) Conditions
00:02 50.0 °F 48.6 °F 30.03 in Calm     95% 0.00 in
00:07 49.9 °F 48.5 °F 30.02 in Calm     95% 0.00 in
00:12 50.1 °F 48.7 °F 30.02 in Calm     95% 0.00 in
00:17 50.0 °F 48.6 °F 30.02 in Calm     95% 0.00 in
00:22 49.9 °F 48.5 °F 30.02 in Calm     95% 0.00 in
00:27 49.9 °F 48.5 °F 30.02 in Calm     95% 0.00 in
00:32 50.1 °F 48.7 °F 30.02 in Calm     95% 0.00 in
00:37 50.3 °F 48.9 °F 30.02 in Calm     95% 0.00 in
00:42 50.3 °F 48.9 °F 30.02 in Calm     95% 0.00 in
00:47 50.2 °F 48.8 °F 30.02 in Calm     95% 0.00 in
00:52 50.0 °F 48.6 °F 30.01 in Calm     95% 0.00 in
00:57 50.1 °F 48.7 °F 30.01 in Calm     95% 0.00 in
01:02 50.3 °F 48.9 °F 30.01 in Calm   1.0 mph 95% 0.00 in
01:07 50.4 °F 49.0 °F 30.01 in Calm     95% 0.00 in
01:12 50.3 °F 48.9 °F 30.01 in Calm   1.0 mph 95% 0.00 in
01:18 50.1 °F 48.7 °F 30.01 in Calm     95% 0.00 in
01:23 50.0 °F 48.6 °F 30.01 in Calm     95% 0.00 in
01:28 49.9 °F 48.5 °F 30.01 in Calm     95% 0.00 in
01:33 50.0 °F 48.6 °F 30.01 in Calm   1.0 mph 95% 0.00 in
01:38 50.1 °F 48.7 °F 30.01 in Calm     95% 0.00 in
01:43 50.0 °F 48.6 °F 30.01 in Calm     95% 0.00 in
01:48 49.9 °F 48.5 °F 30.01 in Calm     95% 0.00 in
01:53 49.7 °F 48.3 °F 30.01 in Calm     95% 0.00 in
01:58 49.5 °F 48.1 °F 30.01 in Calm     95% 0.00 in
02:03 49.2 °F 47.8 °F 30.01 in Calm     95% 0.00 in
02:08 48.9 °F 47.5 °F 30.01 in Calm     95% 0.00 in
02:13 48.5 °F 47.1 °F 30.01 in Calm     95% 0.00 in
02:18 48.3 °F 46.9 °F 30.01 in Calm     95% 0.00 in
02:23 48.1 °F 46.7 °F 30.01 in Calm     95% 0.00 in
02:28 48.1 °F 46.7 °F 30.01 in Calm     95% 0.00 in
02:33 47.9 °F 46.5 °F 30.01 in Calm     95% 0.00 in
02:38 47.7 °F 46.3 °F 30.01 in Calm     95% 0.00 in
02:43 47.7 °F 46.3 °F 30.01 in Calm     95% 0.00 in
02:48 47.8 °F 46.4 °F 30.01 in Calm     95% 0.00 in
02:53 47.7 °F 46.3 °F 30.01 in Calm     95% 0.00 in
02:58 47.7 °F 46.3 °F 30.01 in Calm     95% 0.00 in
03:03 47.6 °F 46.2 °F 30.01 in Calm     95% 0.00 in
03:08 47.6 °F 46.2 °F 30.01 in Calm     95% 0.00 in
03:13 47.8 °F 46.4 °F 30.01 in Calm     95% 0.00 in
03:18 47.8 °F 46.4 °F 30.01 in Calm     95% 0.00 in
03:23 47.7 °F 46.3 °F 30.01 in Calm     95% 0.00 in
03:28 47.6 °F 46.2 °F 30.01 in Calm     95% 0.00 in
03:33 47.7 °F 46.3 °F 30.01 in Calm     95% 0.00 in
03:38 47.7 °F 46.3 °F 30.01 in Calm     95% 0.00 in
03:43 47.8 °F 46.4 °F 30.01 in Calm     95% 0.00 in
03:48 47.9 °F 46.5 °F 30.01 in Calm     95% 0.00 in
03:53 48.0 °F 46.6 °F 30.01 in Calm     95% 0.00 in
03:58 47.9 °F 46.5 °F 30.01 in Calm     95% 0.00 in
04:03 47.9 °F 46.5 °F 30.00 in Calm     95% 0.00 in
04:08 47.9 °F 46.5 °F 30.00 in Calm     95% 0.00 in
04:13 47.9 °F 46.5 °F 30.00 in Calm     95% 0.00 in
04:18 47.8 °F 46.4 °F 30.00 in Calm     95% 0.00 in
04:23 48.0 °F 46.6 °F 30.00 in Calm     95% 0.00 in
04:28 48.3 °F 46.9 °F 30.00 in Calm     95% 0.00 in
04:33 48.5 °F 47.1 °F 30.00 in Calm     95% 0.00 in
04:38 48.6 °F 47.2 °F 30.00 in Calm     95% 0.00 in
04:43 49.2 °F 47.8 °F 30.00 in Calm     95% 0.00 in
04:48 49.5 °F 48.1 °F 30.00 in Calm     95% 0.00 in
04:53 49.5 °F 48.1 °F 30.00 in Calm     95% 0.00 in
04:58 49.5 °F 48.1 °F 30.00 in Calm     95% 0.00 in
05:03 49.5 °F 48.1 °F 30.00 in Calm     95% 0.00 in
05:08 49.5 °F 48.1 °F 30.00 in Calm     95% 0.00 in
05:13 49.4 °F 48.0 °F 30.00 in Calm     95% 0.00 in
05:18 49.3 °F 47.9 °F 30.00 in Calm     95% 0.00 in
05:23 49.2 °F 47.8 °F 30.00 in Calm     95% 0.00 in
05:28 49.2 °F 47.8 °F 30.01 in Calm     95% 0.00 in
05:33 49.2 °F 47.8 °F 30.01 in Calm     95% 0.00 in
05:38 49.3 °F 47.9 °F 30.01 in Calm     95% 0.00 in
05:43 49.5 °F 48.1 °F 30.01 in Calm     95% 0.00 in
05:48 49.7 °F 48.3 °F 30.01 in Calm     95% 0.00 in
05:53 49.6 °F 48.2 °F 30.01 in Calm     95% 0.00 in
05:58 49.6 °F 48.2 °F 30.01 in Calm     95% 0.00 in
06:03 49.6 °F 48.2 °F 30.01 in Calm     95% 0.00 in
06:08 49.5 °F 48.1 °F 30.01 in Calm     95% 0.00 in
06:13 49.5 °F 48.1 °F 30.01 in Calm     95% 0.00 in
06:18 49.5 °F 48.1 °F 30.01 in Calm     95% 0.00 in
06:23 49.4 °F 48.0 °F 30.01 in Calm     95% 0.00 in
06:29 49.4 °F 48.0 °F 30.02 in Calm     95% 0.00 in
06:34 49.5 °F 48.1 °F 30.02 in Calm     95% 0.00 in
06:39 49.4 °F 48.0 °F 30.02 in Calm     95% 0.00 in
06:44 49.1 °F 47.7 °F 30.02 in Calm     95% 0.00 in
06:49 48.9 °F 47.5 °F 30.02 in Calm     95% 0.00 in
06:54 48.9 °F 47.5 °F 30.02 in Calm     95% 0.00 in
06:59 48.8 °F 47.4 °F 30.02 in Calm     95% 0.00 in
07:04 48.5 °F 47.1 °F 30.02 in Calm     95% 0.00 in
07:09 48.3 °F 46.9 °F 30.02 in Calm     95% 0.00 in
07:14 48.1 °F 46.7 °F 30.02 in Calm     95% 0.00 in
07:19 47.9 °F 46.5 °F 30.02 in Calm     95% 0.00 in
07:24 48.1 °F 47.0 °F 30.03 in Calm     96% 0.00 in
07:29 48.1 °F 47.0 °F 30.03 in Calm     96% 0.00 in
07:34 48.1 °F 47.0 °F 30.03 in Calm     96% 0.00 in
07:39 48.4 °F 47.0 °F 30.03 in Calm     95% 0.00 in
07:44 48.7 °F 47.3 °F 30.03 in Calm     95% 0.00 in
07:49 48.9 °F 47.5 °F 30.03 in Calm     95% 0.00 in
07:54 48.7 °F 47.3 °F 30.03 in Calm     95% 0.00 in
07:59 48.5 °F 47.1 °F 30.03 in Calm     95% 0.00 in
08:04 48.3 °F 46.9 °F 30.03 in Calm     95% 0.00 in
08:09 48.2 °F 46.8 °F 30.03 in Calm     95% 0.00 in
08:14 48.3 °F 46.9 °F 30.03 in Calm     95% 0.00 in
08:19 48.4 °F 47.0 °F 30.03 in Calm     95% 0.00 in
08:24 48.4 °F 47.0 °F 30.03 in Calm     95% 0.00 in
08:29 48.5 °F 47.1 °F 30.03 in Calm     95% 0.00 in
08:34 49.0 °F 47.6 °F 30.03 in Calm     95% 0.00 in
08:39 49.3 °F 47.9 °F 30.03 in Calm     95% 0.00 in
08:44 49.4 °F 48.0 °F 30.03 in Calm     95% 0.00 in
08:49 50.2 °F 48.8 °F 30.03 in Calm   1.0 mph 95% 0.00 in
08:54 51.8 °F 50.4 °F 30.04 in Calm     95% 0.00 in
08:59 53.7 °F 52.3 °F 30.04 in Calm     95% 0.00 in
09:04 54.4 °F 53.0 °F 30.04 in Calm     95% 0.00 in
09:09 55.5 °F 53.8 °F 30.04 in Calm     94% 0.00 in
09:14 55.9 °F 54.2 °F 30.05 in Calm     94% 0.00 in
09:19 55.8 °F 54.1 °F 30.05 in Calm     94% 0.00 in
09:24 55.6 °F 54.2 °F 30.05 in Calm     95% 0.00 in
09:29 56.2 °F 54.8 °F 30.05 in Calm     95% 0.00 in
09:34 56.0 °F 54.6 °F 30.05 in Calm   1.0 mph 95% 0.00 in
09:39 57.0 °F 55.3 °F 30.05 in Calm     94% 0.00 in
09:44 57.2 °F 55.8 °F 30.05 in Calm   1.0 mph 95% 0.00 in
09:49 57.3 °F 55.9 °F 30.05 in West 1.0 mph 1.0 mph 95% 0.00 in
09:54 57.6 °F 56.2 °F 30.05 in Calm   2.0 mph 95% 0.00 in
09:59 58.2 °F 56.5 °F 30.05 in Calm     94% 0.00 in
10:04 58.9 °F 56.9 °F 30.06 in Calm   2.0 mph 93% 0.00 in
10:09 59.8 °F 57.2 °F 30.06 in Calm   1.0 mph 91% 0.00 in
10:14 60.8 °F 57.5 °F 30.06 in Calm     89% 0.00 in
10:19 61.2 °F 56.0 °F 30.06 in Calm   2.0 mph 83% 0.00 in
10:25 61.5 °F 55.6 °F 30.06 in West 1.0 mph 1.0 mph 81% 0.00 in
10:30 62.2 °F 56.3 °F 30.06 in Calm   1.0 mph 81% 0.00 in
10:35 62.8 °F 56.5 °F 30.06 in Calm   2.0 mph 80% 0.00 in
10:40 63.5 °F 55.8 °F 30.06 in NE 1.0 mph 2.0 mph 76% 0.00 in
10:45 63.5 °F 55.4 °F 30.06 in Calm   3.0 mph 75% 0.00 in
10:50 63.9 °F 56.2 °F 30.06 in ENE 2.0 mph 3.0 mph 76% 0.00 in
10:55 64.2 °F 55.4 °F 30.06 in Calm   4.0 mph 73% 0.00 in
11:00 64.4 °F 54.8 °F 30.06 in East 1.0 mph 2.0 mph 71% 0.00 in
11:05 64.8 °F 56.0 °F 30.06 in ENE 2.0 mph 3.0 mph 73% 0.00 in
11:10 65.2 °F 55.2 °F 30.07 in ENE 1.0 mph 2.0 mph 70% 0.00 in
11:15 65.2 °F 53.6 °F 30.07 in ENE 1.0 mph 5.0 mph 66% 0.00 in
11:20 65.5 °F 53.4 °F 30.07 in West 3.0 mph 5.0 mph 65% 0.00 in
11:25 65.7 °F 52.3 °F 30.07 in NE 1.0 mph 5.0 mph 62% 0.00 in
11:30 65.5 °F 49.4 °F 30.07 in ENE 2.0 mph 7.0 mph 56% 0.00 in
11:35 65.8 °F 51.5 °F 30.07 in NE 3.0 mph 5.0 mph 60% 0.00 in
11:40 66.2 °F 51.5 °F 30.07 in NW 3.0 mph 3.0 mph 59% 0.00 in
11:45 66.4 °F 53.0 °F 30.07 in NNE 2.0 mph 4.0 mph 62% 0.00 in
11:50 66.6 °F 52.3 °F 30.07 in NE 2.0 mph 5.0 mph 60% 0.00 in
11:55 66.9 °F 51.7 °F 30.07 in NE 2.0 mph 4.0 mph 58% 0.00 in
12:00 66.7 °F 51.5 °F 30.07 in East 3.0 mph 5.0 mph 58% 0.00 in
12:05 67.1 °F 51.4 °F 30.07 in NNW 1.0 mph 3.0 mph 57% 0.00 in
12:10 67.5 °F 52.7 °F 30.07 in NE 2.0 mph 4.0 mph 59% 0.00 in
12:15 67.7 °F 52.9 °F 30.07 in West 3.0 mph 6.0 mph 59% 0.00 in
12:20 67.7 °F 51.9 °F 30.07 in West 2.0 mph 4.0 mph 57% 0.00 in
12:25 68.3 °F 54.3 °F 30.07 in WSW 1.0 mph 3.0 mph 61% 0.00 in
12:30 68.9 °F 53.5 °F 30.07 in WSW 1.0 mph 4.0 mph 58% 0.00 in
12:35 69.0 °F 51.7 °F 30.07 in North 3.0 mph 5.0 mph 54% 0.00 in
12:40 68.7 °F 50.9 °F 30.07 in ENE 2.0 mph 4.0 mph 53% 0.00 in
12:45 68.8 °F 51.0 °F 30.06 in Calm   3.0 mph 53% 0.00 in
12:50 69.2 °F 51.4 °F 30.06 in NNE 2.0 mph 4.0 mph 53% 0.00 in
12:55 69.3 °F 51.5 °F 30.06 in NNW 3.0 mph 3.0 mph 53% 0.00 in
13:00 69.6 °F 52.2 °F 30.06 in NE 2.0 mph 4.0 mph 54% 0.00 in
13:05 69.6 °F 51.7 °F 30.06 in North 7.0 mph 9.0 mph 53% 0.00 in
13:10 69.6 °F 52.2 °F 30.06 in ENE 3.0 mph 4.0 mph 54% 0.00 in
13:15 69.5 °F 51.6 °F 30.06 in NNW 2.0 mph 6.0 mph 53% 0.00 in
13:20 69.3 °F 52.0 °F 30.06 in NW 2.0 mph 7.0 mph 54% 0.00 in
13:25 69.6 °F 52.2 °F 30.06 in West 1.0 mph 2.0 mph 54% 0.00 in
13:30 69.9 °F 53.0 °F 30.06 in NNE 1.0 mph 3.0 mph 55% 0.00 in
13:35 69.8 °F 51.4 °F 30.05 in WSW 3.0 mph 4.0 mph 52% 0.00 in
13:40 69.7 °F 50.8 °F 30.05 in North 1.0 mph 6.0 mph 51% 0.00 in
13:45 69.7 °F 50.2 °F 30.05 in North 3.0 mph 8.0 mph 50% 0.00 in
13:50 70.3 °F 51.9 °F 30.04 in WSW 3.0 mph 5.0 mph 52% 0.00 in
13:55 70.4 °F 52.5 °F 30.04 in Calm   5.0 mph 53% 0.00 in
14:01 70.3 °F 51.3 °F 30.04 in North 5.0 mph 8.0 mph 51% 0.00 in
14:06 70.6 °F 51.1 °F 30.03 in ENE 4.0 mph 4.0 mph 50% 0.00 in
14:11 70.6 °F 51.1 °F 30.03 in NE 1.0 mph 4.0 mph 50% 0.00 in
14:16 70.7 °F 51.2 °F 30.03 in SSW 1.0 mph 6.0 mph 50% 0.00 in
Compliments of Weather Underground